Time;durP1;ratioP1;P1;durP2;ratioP2;P2;SDS_P1;SDS_P2;PMS_P1;PMS_P2;Temp;Humidity;BMP_temperature;BMP_pressure;BME280_temperature;BME280_humidity;BME280_pressure;Samples;Min_cycle;Max_cycle;Signal;HPM_P1;HPM_P2
2022/08/04 00:00:14;;;;;;;8.23;5.50;;;;;;;;;;5032005;28;20568;-75
2022/08/04 00:03:00;;;;;;;9.63;5.67;;;;;;;;;;5057686;28;20181;-75
2022/08/04 00:05:46;;;;;;;8.07;5.53;;;;;;;;;;5055460;28;20189;-75
2022/08/04 00:08:18;;;;;;;10.03;5.80;;;;;;;;;;5073218;28;20188;-75
2022/08/04 00:10:47;;;;;;;7.83;5.80;;;;;;;;;;5072874;28;20224;-75
2022/08/04 00:13:31;;;;;;;7.67;5.60;;;;;;;;;;5057969;28;20192;-75
2022/08/04 00:16:00;;;;;;;16.30;6.30;;;;;;;;;;5055053;28;20549;-75
2022/08/04 00:19:00;;;;;;;10.03;5.53;;;;;;;;;;5055018;28;20224;-75
2022/08/04 00:21:26;;;;;;;10.10;5.47;;;;;;;;;;5028710;28;20623;-75
2022/08/04 00:24:11;;;;;;;10.67;6.73;;;;;;;;;;5057798;28;20176;-75
2022/08/04 00:26:39;;;;;;;13.90;6.27;;;;;;;;;;5086540;28;20209;-75
2022/08/04 00:29:05;;;;;;;8.57;6.00;;;;;;;;;;5074931;28;20197;-75
2022/08/04 00:31:32;;;;;;;13.43;5.43;;;;;;;;;;5093015;28;20174;-75
2022/08/04 00:34:19;;;;;;;11.47;5.03;;;;;;;;;;5092770;28;20193;-75
2022/08/04 00:36:46;;;;;;;7.23;5.30;;;;;;;;;;5074939;28;20269;-75
2022/08/04 00:39:13;;;;;;;12.80;5.50;;;;;;;;;;5092840;28;20220;-75
2022/08/04 00:41:58;;;;;;;6.77;5.43;;;;;;;;;;5092353;28;20186;-75
2022/08/04 00:44:48;;;;;;;9.43;5.70;;;;;;;;;;5092483;28;20184;-75
2022/08/04 00:47:15;;;;;;;7.87;5.53;;;;;;;;;;5092511;28;20296;-75
2022/08/04 00:49:50;;;;;;;7.00;5.30;;;;;;;;;;5092617;28;20631;-75
2022/08/04 00:52:17;;;;;;;6.07;5.03;;;;;;;;;;5074366;28;20212;-75
2022/08/04 00:55:03;;;;;;;8.30;5.00;;;;;;;;;;5092594;28;20189;-75
2022/08/04 00:57:50;;;;;;;6.33;4.80;;;;;;;;;;5058823;28;20200;-75
2022/08/04 01:00:17;;;;;;;7.00;4.87;;;;;;;;;;5092270;28;20197;-75
2022/08/04 01:02:47;;;;;;;7.93;5.10;;;;;;;;;;5074122;28;20288;-75
2022/08/04 01:05:21;;;;;;;7.00;5.37;;;;;;;;;;5092407;28;20951;-75
2022/08/04 01:07:48;;;;;;;8.53;4.97;;;;;;;;;;5074300;28;20642;-74
2022/08/04 01:10:38;;;;;;;9.60;5.97;;;;;;;;;;5090936;28;20204;-75
2022/08/04 01:13:12;;;;;;;8.37;5.20;;;;;;;;;;5079403;28;20595;-74
2022/08/04 01:15:45;;;;;;;8.30;5.20;;;;;;;;;;5091659;28;20185;-75
2022/08/04 01:18:44;;;;;;;6.93;4.90;;;;;;;;;;5076098;28;20263;-75
2022/08/04 01:21:20;;;;;;;8.00;4.80;;;;;;;;;;5091949;28;20196;-75
2022/08/04 01:23:50;;;;;;;7.40;4.67;;;;;;;;;;5091894;28;20213;-75
2022/08/04 01:26:23;;;;;;;7.97;4.60;;;;;;;;;;5062738;28;20565;-74
2022/08/04 01:29:11;;;;;;;7.93;4.50;;;;;;;;;;5056677;28;20255;-75
2022/08/04 01:31:59;;;;;;;7.77;5.20;;;;;;;;;;5071197;28;20534;-75
2022/08/04 01:34:46;;;;;;;7.67;4.70;;;;;;;;;;5071311;28;20273;-75
2022/08/04 01:37:21;;;;;;;6.37;4.50;;;;;;;;;;5068306;28;20261;-75
2022/08/04 01:40:05;;;;;;;6.33;4.70;;;;;;;;;;5056200;28;20162;-75
2022/08/04 01:42:33;;;;;;;8.07;4.73;;;;;;;;;;5071134;28;20185;-75
2022/08/04 01:45:01;;;;;;;5.93;4.80;;;;;;;;;;5071059;28;20277;-75
2022/08/04 01:47:28;;;;;;;6.97;4.50;;;;;;;;;;5053323;28;20293;-75
2022/08/04 01:50:01;;;;;;;6.77;4.43;;;;;;;;;;5053412;28;20224;-74
2022/08/04 01:52:28;;;;;;;8.13;5.20;;;;;;;;;;5036901;28;20190;-75
2022/08/04 01:54:55;;;;;;;8.27;5.20;;;;;;;;;;5052998;28;20301;-75
2022/08/04 01:57:21;;;;;;;5.67;4.80;;;;;;;;;;5071036;28;20186;-75
2022/08/04 02:00:05;;;;;;;7.63;4.83;;;;;;;;;;5071125;28;20196;-75
2022/08/04 02:02:32;;;;;;;9.67;5.27;;;;;;;;;;5071166;28;20186;-75
2022/08/04 02:04:59;;;;;;;6.37;4.80;;;;;;;;;;5071124;28;20217;-74
2022/08/04 02:07:38;;;;;;;6.50;4.57;;;;;;;;;;5070546;28;20197;-75
2022/08/04 02:10:06;;;;;;;6.20;4.37;;;;;;;;;;5071178;28;20538;-74
2022/08/04 02:12:52;;;;;;;7.07;4.80;;;;;;;;;;5070884;28;20166;-75
2022/08/04 02:15:19;;;;;;;5.73;4.23;;;;;;;;;;5053069;28;20218;-74
2022/08/04 02:18:06;;;;;;;6.40;4.67;;;;;;;;;;5052171;28;20769;-75
2022/08/04 02:20:37;;;;;;;9.87;4.77;;;;;;;;;;5039793;28;20333;-74
2022/08/04 02:23:24;;;;;;;9.37;5.07;;;;;;;;;;5056147;28;20198;-74
2022/08/04 02:25:59;;;;;;;7.60;4.50;;;;;;;;;;5077980;28;20193;-75
2022/08/04 02:28:32;;;;;;;8.17;4.70;;;;;;;;;;5090612;28;20660;-75
2022/08/04 02:31:02;;;;;;;9.67;5.07;;;;;;;;;;5090682;28;20189;-75
2022/08/04 02:33:31;;;;;;;6.57;5.07;;;;;;;;;;5090459;28;20181;-75
2022/08/04 02:35:58;;;;;;;5.50;4.60;;;;;;;;;;5072792;28;20191;-74
2022/08/04 02:38:48;;;;;;;8.57;4.73;;;;;;;;;;5090512;28;20213;-75
2022/08/04 02:41:15;;;;;;;5.97;4.50;;;;;;;;;;5089523;28;20229;-75
2022/08/04 02:43:43;;;;;;;8.17;4.80;;;;;;;;;;5089802;28;20198;-74
2022/08/04 02:46:27;;;;;;;8.90;4.67;;;;;;;;;;5075150;28;20201;-74
2022/08/04 02:48:55;;;;;;;9.20;4.43;;;;;;;;;;5090254;28;20668;-74
2022/08/04 02:51:24;;;;;;;7.10;4.37;;;;;;;;;;5072688;28;20185;-74
2022/08/04 02:53:52;;;;;;;5.53;4.33;;;;;;;;;;5090781;28;20288;-74
2022/08/04 02:56:19;;;;;;;6.03;4.60;;;;;;;;;;5090591;28;20185;-74
2022/08/04 02:58:48;;;;;;;8.30;4.30;;;;;;;;;;5090601;28;20198;-75
2022/08/04 03:01:15;;;;;;;5.23;4.10;;;;;;;;;;5072483;28;20268;-75
2022/08/04 03:03:49;;;;;;;6.13;4.23;;;;;;;;;;5090482;28;20186;-74
2022/08/04 03:06:22;;;;;;;6.80;4.40;;;;;;;;;;5072625;28;20266;-74
2022/08/04 03:09:12;;;;;;;7.00;4.43;;;;;;;;;;5075234;28;20169;-74
2022/08/04 03:11:46;;;;;;;6.00;4.10;;;;;;;;;;5090495;28;20201;-74
2022/08/04 03:14:21;;;;;;;6.40;4.17;;;;;;;;;;5072860;28;20211;-74
2022/08/04 03:16:51;;;;;;;5.80;4.33;;;;;;;;;;5072708;28;20183;-75
2022/08/04 03:19:50;;;;;;;7.63;4.40;;;;;;;;;;5075146;28;20587;-74
2022/08/04 03:22:33;;;;;;;6.33;4.40;;;;;;;;;;5072259;28;20193;-75
2022/08/04 03:25:18;;;;;;;6.33;4.23;;;;;;;;;;5072049;28;20190;-74
2022/08/04 03:27:49;;;;;;;4.77;4.37;;;;;;;;;;5070319;28;20764;-74
2022/08/04 03:30:39;;;;;;;7.13;4.40;;;;;;;;;;5052586;28;20669;-74
2022/08/04 03:33:06;;;;;;;6.50;4.60;;;;;;;;;;5070151;28;20182;-75
2022/08/04 03:35:42;;;;;;;8.20;4.23;;;;;;;;;;5056427;28;20190;-75
2022/08/04 03:38:24;;;;;;;5.80;4.13;;;;;;;;;;5074304;28;20196;-74
2022/08/04 03:41:03;;;;;;;5.93;3.97;;;;;;;;;;5055885;28;20198;-74
2022/08/04 03:43:33;;;;;;;5.97;4.47;;;;;;;;;;5073914;28;20190;-74
2022/08/04 03:46:38;;;;;;;5.23;4.13;;;;;;;;;;5073449;28;20182;-74
2022/08/04 03:49:17;;;;;;;9.77;4.70;;;;;;;;;;5073514;28;20660;-74
2022/08/04 03:54:29;;;;;;;25.83;6.30;;;;;;;;;;5073382;28;20216;-74
2022/08/04 03:57:05;;;;;;;11.83;5.27;;;;;;;;;;5055403;28;20190;-74
2022/08/04 03:59:51;;;;;;;19.17;5.53;;;;;;;;;;5073633;28;20247;-75
2022/08/04 04:02:57;;;;;;;20.20;5.57;;;;;;;;;;5058638;28;20649;-74
2022/08/04 04:05:33;;;;;;;23.13;5.70;;;;;;;;;;5055723;28;20720;-75
2022/08/04 04:08:38;;;;;;;28.60;6.57;;;;;;;;;;5073364;28;20206;-75
2022/08/04 04:11:27;;;;;;;20.33;6.20;;;;;;;;;;5073477;28;20186;-74
2022/08/04 04:14:06;;;;;;;16.93;5.80;;;;;;;;;;5073106;28;20855;-74
2022/08/04 04:16:36;;;;;;;18.03;5.23;;;;;;;;;;5073391;28;20726;-74
2022/08/04 04:19:03;;;;;;;23.37;5.83;;;;;;;;;;5072780;28;20210;-74
2022/08/04 04:21:42;;;;;;;24.27;5.87;;;;;;;;;;5073073;28;20190;-74
2022/08/04 04:24:26;;;;;;;14.67;5.53;;;;;;;;;;5073083;28;20630;-74
2022/08/04 04:27:28;;;;;;;17.60;5.60;;;;;;;;;;5089900;28;20613;-74
2022/08/04 04:29:58;;;;;;;19.40;6.17;;;;;;;;;;5087660;28;20278;-74
2022/08/04 04:32:37;;;;;;;16.23;5.73;;;;;;;;;;5074854;28;20591;-74
2022/08/04 04:35:10;;;;;;;13.40;5.33;;;;;;;;;;5075475;28;20289;-74
2022/08/04 04:37:40;;;;;;;14.53;5.03;;;;;;;;;;5075471;28;20238;-74
2022/08/04 04:40:14;;;;;;;16.60;5.00;;;;;;;;;;5093296;28;20193;-75
2022/08/04 04:42:47;;;;;;;13.60;5.10;;;;;;;;;;5093054;28;20182;-74
2022/08/04 04:45:25;;;;;;;9.03;4.87;;;;;;;;;;5092707;28;20217;-74
2022/08/04 04:47:54;;;;;;;16.10;5.70;;;;;;;;;;5074875;28;20299;-74
2022/08/04 04:50:59;;;;;;;11.50;5.47;;;;;;;;;;5092743;28;20252;-74
2022/08/04 04:53:27;;;;;;;10.37;4.80;;;;;;;;;;5042211;28;20534;-74
2022/08/04 04:56:02;;;;;;;11.03;4.47;;;;;;;;;;5092505;28;20185;-74
2022/08/04 04:58:30;;;;;;;10.40;4.97;;;;;;;;;;5092616;28;20185;-74
2022/08/04 05:01:28;;;;;;;11.83;5.10;;;;;;;;;;5077159;28;20599;-74
2022/08/04 05:03:55;;;;;;;7.13;4.93;;;;;;;;;;5074443;28;20536;-74
2022/08/04 05:06:28;;;;;;;7.30;5.00;;;;;;;;;;5074061;28;20189;-74
2022/08/04 05:08:58;;;;;;;6.97;4.50;;;;;;;;;;5092318;28;20208;-74
2022/08/04 05:11:38;;;;;;;9.33;4.87;;;;;;;;;;5092697;28;20244;-74
2022/08/04 05:14:07;;;;;;;15.17;5.10;;;;;;;;;;5092502;28;20193;-74
2022/08/04 05:17:02;;;;;;;13.50;5.40;;;;;;;;;;5077199;28;20197;-74
2022/08/04 05:19:33;;;;;;;12.60;5.03;;;;;;;;;;5092547;28;20234;-74
2022/08/04 05:22:17;;;;;;;8.63;4.83;;;;;;;;;;5057922;28;20190;-74
2022/08/04 05:24:44;;;;;;;6.40;4.63;;;;;;;;;;5074452;28;20190;-74
2022/08/04 05:27:12;;;;;;;5.70;4.47;;;;;;;;;;5055435;28;20703;-74
2022/08/04 05:29:47;;;;;;;9.03;4.73;;;;;;;;;;5071894;28;20197;-75
2022/08/04 05:32:36;;;;;;;8.50;4.40;;;;;;;;;;5056618;28;20216;-74
2022/08/04 05:35:08;;;;;;;8.57;5.10;;;;;;;;;;5054009;28;20206;-74
2022/08/04 05:37:36;;;;;;;9.00;4.80;;;;;;;;;;5068600;28;20190;-74
2022/08/04 05:40:07;;;;;;;8.27;4.90;;;;;;;;;;5037260;28;20744;-74
2022/08/04 05:42:35;;;;;;;9.23;4.90;;;;;;;;;;5053916;28;20216;-74
2022/08/04 05:45:04;;;;;;;8.33;4.77;;;;;;;;;;5053878;28;20193;-74
2022/08/04 05:47:31;;;;;;;8.97;4.03;;;;;;;;;;5054121;28;20202;-74
2022/08/04 05:49:59;;;;;;;5.00;4.33;;;;;;;;;;5053507;28;20190;-74
2022/08/04 05:52:29;;;;;;;6.67;4.20;;;;;;;;;;5054205;28;20224;-73
2022/08/04 05:54:56;;;;;;;7.70;4.10;;;;;;;;;;5071294;28;20280;-73
2022/08/04 05:57:23;;;;;;;6.40;4.10;;;;;;;;;;5052902;28;20210;-73
2022/08/04 05:59:49;;;;;;;6.20;4.50;;;;;;;;;;5053409;28;20531;-74
2022/08/04 06:02:16;;;;;;;6.63;4.30;;;;;;;;;;5071045;28;20217;-74
2022/08/04 06:04:45;;;;;;;4.80;3.97;;;;;;;;;;5053168;28;20190;-74
2022/08/04 06:07:12;;;;;;;5.10;4.40;;;;;;;;;;5070957;28;20642;-73
2022/08/04 06:09:40;;;;;;;8.27;4.20;;;;;;;;;;5053223;28;20186;-74
2022/08/04 06:12:08;;;;;;;5.03;4.07;;;;;;;;;;5071134;28;20691;-72
2022/08/04 06:14:36;;;;;;;4.60;3.87;;;;;;;;;;5070905;28;20628;-73
2022/08/04 06:17:04;;;;;;;6.07;4.10;;;;;;;;;;5036369;28;20201;-73
2022/08/04 06:19:51;;;;;;;6.40;4.37;;;;;;;;;;5056170;28;20204;-73
2022/08/04 06:22:38;;;;;;;5.60;4.20;;;;;;;;;;5056115;28;20191;-74
2022/08/04 06:25:06;;;;;;;4.50;4.10;;;;;;;;;;5054105;28;20285;-73
2022/08/04 06:27:50;;;;;;;5.20;4.17;;;;;;;;;;5090972;28;20295;-74
2022/08/04 06:30:18;;;;;;;5.20;4.30;;;;;;;;;;5072857;28;20271;-73
2022/08/04 06:33:12;;;;;;;4.73;4.03;;;;;;;;;;5075728;28;20553;-74
2022/08/04 06:35:39;;;;;;;6.43;4.23;;;;;;;;;;5090598;28;20213;-74
2022/08/04 06:38:24;;;;;;;4.50;4.10;;;;;;;;;;5090955;28;20161;-73
2022/08/04 06:40:51;;;;;;;4.80;4.00;;;;;;;;;;5090888;28;20612;-73
2022/08/04 06:43:17;;;;;;;4.20;3.80;;;;;;;;;;5072680;28;20281;-75
2022/08/04 06:45:44;;;;;;;6.17;4.20;;;;;;;;;;5072827;28;20173;-74
2022/08/04 06:48:11;;;;;;;5.63;3.87;;;;;;;;;;5055965;28;20216;-73
2022/08/04 06:50:38;;;;;;;6.73;3.80;;;;;;;;;;5072349;28;20193;-74
2022/08/04 06:53:25;;;;;;;3.97;3.53;;;;;;;;;;5058922;28;20193;-74
2022/08/04 06:55:53;;;;;;;4.33;3.60;;;;;;;;;;5072645;28;20197;-74
2022/08/04 06:58:22;;;;;;;5.53;4.27;;;;;;;;;;5072993;28;20182;-73
2022/08/04 07:00:48;;;;;;;5.40;4.10;;;;;;;;;;5090350;28;20176;-73
2022/08/04 07:03:16;;;;;;;4.83;3.70;;;;;;;;;;5090513;28;20722;-74
2022/08/04 07:05:45;;;;;;;4.93;3.80;;;;;;;;;;5072562;28;20228;-74
2022/08/04 07:08:12;;;;;;;31.43;5.53;;;;;;;;;;5091008;28;20276;-74
2022/08/04 07:10:38;;;;;;;3.93;3.53;;;;;;;;;;5076059;28;20740;-74
2022/08/04 07:13:06;;;;;;;6.83;3.90;;;;;;;;;;5076667;28;20188;-74
2022/08/04 07:15:33;;;;;;;4.40;3.47;;;;;;;;;;5094326;28;20192;-73
2022/08/04 07:18:03;;;;;;;4.10;3.70;;;;;;;;;;5076109;28;20220;-73
2022/08/04 07:20:32;;;;;;;4.17;3.50;;;;;;;;;;5094567;28;20187;-75
2022/08/04 07:23:03;;;;;;;3.80;3.50;;;;;;;;;;5094586;28;20189;-74
2022/08/04 07:25:30;;;;;;;4.27;3.40;;;;;;;;;;5055210;28;20243;-74
2022/08/04 07:28:17;;;;;;;4.47;3.57;;;;;;;;;;5059499;28;20270;-73
2022/08/04 07:30:44;;;;;;;6.20;3.57;;;;;;;;;;5074057;28;20193;-73
2022/08/04 07:33:11;;;;;;;3.70;3.40;;;;;;;;;;5056280;28;20616;-74
2022/08/04 07:35:38;;;;;;;4.90;3.20;;;;;;;;;;5056171;28;20220;-74
2022/08/04 07:38:25;;;;;;;4.30;3.10;;;;;;;;;;5059281;28;20186;-74
2022/08/04 07:40:53;;;;;;;6.50;3.50;;;;;;;;;;5055909;28;20216;-74
2022/08/04 07:43:20;;;;;;;3.93;3.60;;;;;;;;;;5073660;28;20219;-75
2022/08/04 07:45:47;;;;;;;4.37;3.47;;;;;;;;;;5055945;28;20194;-74
2022/08/04 07:48:14;;;;;;;4.07;3.50;;;;;;;;;;5056078;28;20242;-74
2022/08/04 07:50:41;;;;;;;3.50;3.20;;;;;;;;;;5056003;28;20194;-73
2022/08/04 07:53:08;;;;;;;3.67;3.17;;;;;;;;;;5055985;28;20186;-74
2022/08/04 07:55:55;;;;;;;5.60;3.23;;;;;;;;;;5058580;28;20186;-74
2022/08/04 07:58:22;;;;;;;4.13;3.23;;;;;;;;;;5073163;28;20198;-74
2022/08/04 08:00:55;;;;;;;3.53;2.90;;;;;;;;;;5055186;28;20220;-74
2022/08/04 08:03:22;;;;;;;4.80;3.30;;;;;;;;;;5073377;28;20186;-74
2022/08/04 08:05:48;;;;;;;3.40;3.10;;;;;;;;;;5038835;28;20725;-73
2022/08/04 08:08:39;;;;;;;3.60;3.30;;;;;;;;;;5073368;28;20300;-73
2022/08/04 08:11:06;;;;;;;4.40;3.23;;;;;;;;;;5073552;28;20194;-74
2022/08/04 08:13:33;;;;;;;3.90;3.30;;;;;;;;;;5055637;28;20187;-74
2022/08/04 08:16:00;;;;;;;4.03;3.30;;;;;;;;;;5072885;28;20191;-74
2022/08/04 08:18:44;;;;;;;4.53;3.10;;;;;;;;;;5057461;28;20292;-74
2022/08/04 08:21:18;;;;;;;3.60;3.10;;;;;;;;;;5055802;28;20189;-74
2022/08/04 08:24:03;;;;;;;4.60;3.40;;;;;;;;;;5057987;28;20192;-74
2022/08/04 08:26:38;;;;;;;5.23;3.33;;;;;;;;;;5070613;28;20200;-73
2022/08/04 08:29:23;;;;;;;5.80;3.60;;;;;;;;;;5078050;28;20209;-74
2022/08/04 08:31:49;;;;;;;5.27;3.20;;;;;;;;;;5075140;28;20235;-74
2022/08/04 08:34:37;;;;;;;4.97;3.10;;;;;;;;;;5078121;28;20339;-74
2022/08/04 08:37:19;;;;;;;3.30;3.00;;;;;;;;;;5075308;28;20587;-74
2022/08/04 08:39:54;;;;;;;3.40;3.10;;;;;;;;;;5093245;28;20276;-74
2022/08/04 08:42:24;;;;;;;4.10;3.00;;;;;;;;;;5092967;28;20184;-74
2022/08/04 08:45:11;;;;;;;3.50;3.20;;;;;;;;;;5092869;28;20215;-74
2022/08/04 08:48:02;;;;;;;3.80;3.40;;;;;;;;;;5074427;28;20299;-74
2022/08/04 08:50:46;;;;;;;3.83;3.03;;;;;;;;;;5092886;28;20193;-74
2022/08/04 08:53:25;;;;;;;4.83;2.97;;;;;;;;;;5058643;28;20245;-75
2022/08/04 08:56:13;;;;;;;4.27;3.00;;;;;;;;;;5092437;28;20236;-74
2022/08/04 08:58:43;;;;;;;3.37;3.10;;;;;;;;;;5074544;28;20563;-74
2022/08/04 09:01:40;;;;;;;6.50;2.90;;;;;;;;;;5092591;28;20244;-74
2022/08/04 09:04:12;;;;;;;3.33;3.03;;;;;;;;;;5092372;28;20216;-75
2022/08/04 09:06:53;;;;;;;3.93;3.10;;;;;;;;;;5092674;28;20717;-75
2022/08/04 09:09:20;;;;;;;2.50;2.30;;;;;;;;;;5074539;28;20569;-73
2022/08/04 09:12:05;;;;;;;3.60;2.77;;;;;;;;;;5092271;28;20273;-74
2022/08/04 09:14:38;;;;;;;3.17;2.87;;;;;;;;;;5092557;28;20220;-73
2022/08/04 09:17:10;;;;;;;4.53;3.10;;;;;;;;;;5092180;28;20219;-73
2022/08/04 09:19:58;;;;;;;4.60;3.10;;;;;;;;;;5057294;28;20268;-74
2022/08/04 09:22:40;;;;;;;4.37;2.83;;;;;;;;;;5071321;28;20204;-74
2022/08/04 09:25:06;;;;;;;4.10;2.77;;;;;;;;;;5056365;28;20268;-74
2022/08/04 09:27:38;;;;;;;3.70;3.20;;;;;;;;;;5071648;28;20189;-73
2022/08/04 09:30:08;;;;;;;4.10;3.17;;;;;;;;;;5054233;28;20240;-75
2022/08/04 09:32:57;;;;;;;5.83;3.00;;;;;;;;;;5055909;28;20197;-73
2022/08/04 09:35:33;;;;;;;2.70;2.50;;;;;;;;;;5054208;28;20193;-73
2022/08/04 09:38:18;;;;;;;5.23;2.70;;;;;;;;;;5071849;28;20182;-73
2022/08/04 09:40:45;;;;;;;4.53;2.90;;;;;;;;;;5071509;28;20174;-73
2022/08/04 09:43:23;;;;;;;3.67;2.90;;;;;;;;;;5071638;28;20186;-73
2022/08/04 09:46:08;;;;;;;3.73;3.40;;;;;;;;;;5071491;28;20596;-73
2022/08/04 09:48:52;;;;;;;3.43;3.00;;;;;;;;;;5037019;28;20547;-75
2022/08/04 09:51:21;;;;;;;5.17;3.00;;;;;;;;;;5071038;28;20174;-73
2022/08/04 09:53:48;;;;;;;4.27;3.20;;;;;;;;;;5071317;28;20288;-73
2022/08/04 09:56:28;;;;;;;3.10;2.90;;;;;;;;;;5071401;28;20542;-75
2022/08/04 09:58:58;;;;;;;2.70;2.50;;;;;;;;;;5071057;28;20510;-74
2022/08/04 10:01:25;;;;;;;3.30;2.90;;;;;;;;;;5071566;28;20225;-74
2022/08/04 10:03:54;;;;;;;3.83;3.07;;;;;;;;;;5053664;28;20784;-74
2022/08/04 10:06:26;;;;;;;3.50;3.20;;;;;;;;;;5053397;28;20215;-74
2022/08/04 10:08:53;;;;;;;3.83;3.47;;;;;;;;;;5071045;28;20303;-75
2022/08/04 10:11:41;;;;;;;3.87;3.17;;;;;;;;;;5053827;28;20182;-74
2022/08/04 10:14:25;;;;;;;3.53;3.20;;;;;;;;;;5071388;28;20162;-74
2022/08/04 10:17:11;;;;;;;5.90;3.20;;;;;;;;;;5070761;28;20277;-73
2022/08/04 10:19:37;;;;;;;5.57;3.30;;;;;;;;;;5070540;28;20752;-73
2022/08/04 10:22:14;;;;;;;4.03;3.63;;;;;;;;;;5053298;28;20197;-74
2022/08/04 10:25:03;;;;;;;4.07;3.60;;;;;;;;;;5070771;28;20685;-74
2022/08/04 10:27:29;;;;;;;3.50;3.30;;;;;;;;;;5070828;28;20603;-74
2022/08/04 10:30:12;;;;;;;3.90;3.60;;;;;;;;;;5070752;28;20245;-74
2022/08/04 10:32:59;;;;;;;3.30;3.10;;;;;;;;;;5053700;28;20186;-75
2022/08/04 10:35:26;;;;;;;5.20;3.70;;;;;;;;;;5030081;28;20315;-73
2022/08/04 10:38:01;;;;;;;3.90;3.57;;;;;;;;;;5070771;28;20183;-73
2022/08/04 10:40:36;;;;;;;4.00;3.63;;;;;;;;;;5053213;28;20194;-74
2022/08/04 10:43:32;;;;;;;4.43;3.53;;;;;;;;;;5070328;28;20173;-73
2022/08/04 10:46:05;;;;;;;4.77;3.60;;;;;;;;;;5070763;28;20307;-73
2022/08/04 10:48:51;;;;;;;3.80;3.40;;;;;;;;;;5052179;28;20619;-73
2022/08/04 10:51:19;;;;;;;3.60;3.20;;;;;;;;;;5070767;28;20171;-73
2022/08/04 10:53:48;;;;;;;4.57;3.33;;;;;;;;;;5070477;28;20251;-73
2022/08/04 10:56:21;;;;;;;4.47;3.43;;;;;;;;;;5052723;28;20182;-73
2022/08/04 10:58:52;;;;;;;4.80;3.40;;;;;;;;;;5052769;28;20703;-73
2022/08/04 11:01:23;;;;;;;5.10;3.10;;;;;;;;;;5052601;28;20229;-73
2022/08/04 11:04:15;;;;;;;5.70;3.60;;;;;;;;;;5070345;28;20676;-73
2022/08/04 11:06:54;;;;;;;5.87;4.87;;;;;;;;;;5070250;28;20196;-73
2022/08/04 11:09:21;;;;;;;8.90;5.77;;;;;;;;;;5052287;28;20283;-74
2022/08/04 11:12:01;;;;;;;5.63;4.33;;;;;;;;;;5036160;28;20185;-73
2022/08/04 11:14:49;;;;;;;7.50;4.30;;;;;;;;;;5055314;28;20170;-74
2022/08/04 11:17:18;;;;;;;5.00;3.30;;;;;;;;;;5052312;28;20193;-73
2022/08/04 11:19:46;;;;;;;4.17;3.10;;;;;;;;;;5052360;28;20257;-73
2022/08/04 11:22:22;;;;;;;5.00;3.50;;;;;;;;;;5069893;28;20518;-73
2022/08/04 11:24:51;;;;;;;3.40;3.10;;;;;;;;;;5070339;28;20186;-73
2022/08/04 11:27:20;;;;;;;4.00;3.30;;;;;;;;;;5071611;28;20189;-74
2022/08/04 11:30:02;;;;;;;3.43;3.10;;;;;;;;;;5072291;28;20762;-73
2022/08/04 11:32:42;;;;;;;7.67;3.50;;;;;;;;;;5090188;28;20212;-75
2022/08/04 11:35:15;;;;;;;4.10;3.40;;;;;;;;;;5090298;28;20205;-74
2022/08/04 11:37:46;;;;;;;3.67;3.30;;;;;;;;;;5072480;28;20685;-76
2022/08/04 11:40:23;;;;;;;5.27;3.40;;;;;;;;;;5090283;28;20217;-75
2022/08/04 11:43:09;;;;;;;3.27;2.97;;;;;;;;;;5057922;28;20177;-74
2022/08/04 11:45:37;;;;;;;3.37;3.07;;;;;;;;;;5072202;28;20174;-74
2022/08/04 11:48:15;;;;;;;3.57;2.87;;;;;;;;;;5072332;28;20198;-74
2022/08/04 11:50:51;;;;;;;4.27;3.50;;;;;;;;;;5038882;28;20228;-74
2022/08/04 11:53:23;;;;;;;4.10;3.40;;;;;;;;;;5072447;28;20576;-74
2022/08/04 11:55:53;;;;;;;4.80;3.30;;;;;;;;;;5090654;28;20298;-75
2022/08/04 11:58:35;;;;;;;4.57;3.30;;;;;;;;;;5093624;28;20282;-74
2022/08/04 12:01:13;;;;;;;4.53;3.07;;;;;;;;;;5076153;28;20603;-75
2022/08/04 12:03:49;;;;;;;5.03;3.40;;;;;;;;;;5075405;28;20216;-74
2022/08/04 12:06:31;;;;;;;5.47;3.30;;;;;;;;;;5077863;28;20257;-74
2022/08/04 12:08:58;;;;;;;3.00;2.80;;;;;;;;;;5093249;28;20789;-75
2022/08/04 12:11:28;;;;;;;3.53;3.20;;;;;;;;;;5093469;28;20243;-75
2022/08/04 12:14:13;;;;;;;3.10;2.90;;;;;;;;;;5093453;28;20190;-75
2022/08/04 12:16:43;;;;;;;6.17;3.00;;;;;;;;;;5075475;28;20205;-75
2022/08/04 12:19:29;;;;;;;5.13;3.40;;;;;;;;;;5093187;28;20267;-74
2022/08/04 12:22:18;;;;;;;4.67;3.10;;;;;;;;;;5078481;28;20189;-74
2022/08/04 12:24:52;;;;;;;4.50;3.20;;;;;;;;;;5075899;28;20668;-75
2022/08/04 12:27:24;;;;;;;6.57;3.60;;;;;;;;;;5055391;28;20193;-75
2022/08/04 12:29:57;;;;;;;3.77;3.40;;;;;;;;;;5072839;28;20205;-75
2022/08/04 12:32:59;;;;;;;3.80;3.50;;;;;;;;;;5072880;28;20273;-75
2022/08/04 12:35:26;;;;;;;4.50;3.47;;;;;;;;;;5055731;28;20200;-75
2022/08/04 12:38:01;;;;;;;3.80;3.50;;;;;;;;;;5072805;28;20213;-74
2022/08/04 12:40:29;;;;;;;7.07;3.57;;;;;;;;;;5055596;28;20641;-73
2022/08/04 12:43:00;;;;;;;3.73;3.43;;;;;;;;;;5055051;28;20220;-75
2022/08/04 12:45:29;;;;;;;4.93;3.87;;;;;;;;;;5072695;28;20202;-75
2022/08/04 12:47:56;;;;;;;5.33;3.47;;;;;;;;;;5037807;28;20661;-73
2022/08/04 12:50:23;;;;;;;5.23;3.33;;;;;;;;;;5054849;28;20738;-74
2022/08/04 12:52:53;;;;;;;4.70;3.43;;;;;;;;;;5072616;28;20190;-74
2022/08/04 12:55:32;;;;;;;3.57;3.23;;;;;;;;;;5072389;28;20193;-73
2022/08/04 12:57:59;;;;;;;4.30;3.67;;;;;;;;;;5054726;28;20231;-73
2022/08/04 13:00:35;;;;;;;5.67;3.40;;;;;;;;;;5037758;28;20625;-74
2022/08/04 13:03:08;;;;;;;4.50;3.23;;;;;;;;;;5072483;28;20696;-74
2022/08/04 13:05:36;;;;;;;3.60;3.30;;;;;;;;;;5054735;28;20193;-73
2022/08/04 13:08:03;;;;;;;4.40;3.53;;;;;;;;;;5054660;28;20273;-73
2022/08/04 13:10:30;;;;;;;5.33;3.60;;;;;;;;;;5054447;28;20233;-74
2022/08/04 13:12:57;;;;;;;5.63;3.60;;;;;;;;;;5072012;28;20218;-74
2022/08/04 13:15:24;;;;;;;5.63;3.67;;;;;;;;;;5037749;28;20225;-74
2022/08/04 13:17:56;;;;;;;6.03;3.80;;;;;;;;;;5054058;28;20224;-74
2022/08/04 13:20:25;;;;;;;5.73;3.87;;;;;;;;;;5072131;28;20251;-74
2022/08/04 13:23:13;;;;;;;3.70;3.40;;;;;;;;;;5054411;28;20216;-74
2022/08/04 13:25:47;;;;;;;4.67;3.77;;;;;;;;;;5078822;28;20242;-75
2022/08/04 13:28:33;;;;;;;7.43;4.07;;;;;;;;;;5092010;28;20161;-74
2022/08/04 13:31:01;;;;;;;5.00;3.60;;;;;;;;;;5057731;28;20186;-73
2022/08/04 13:33:34;;;;;;;3.80;3.40;;;;;;;;;;5091910;28;20242;-75
2022/08/04 13:36:02;;;;;;;3.70;3.40;;;;;;;;;;5074059;28;20183;-73
2022/08/04 13:38:29;;;;;;;5.67;3.57;;;;;;;;;;5074420;28;20193;-74
2022/08/04 13:40:56;;;;;;;4.27;3.80;;;;;;;;;;5073814;28;20269;-73
2022/08/04 13:43:27;;;;;;;6.13;3.70;;;;;;;;;;5073931;28;20651;-75
2022/08/04 13:46:18;;;;;;;4.83;3.60;;;;;;;;;;5076572;28;20288;-73
2022/08/04 13:48:58;;;;;;;4.70;3.70;;;;;;;;;;5074878;28;20269;-74
2022/08/04 13:51:48;;;;;;;5.13;3.60;;;;;;;;;;5076572;28;20615;-75
2022/08/04 13:54:25;;;;;;;4.47;3.63;;;;;;;;;;5074952;28;20772;-73
2022/08/04 13:56:57;;;;;;;5.40;3.90;;;;;;;;;;5073546;28;20196;-74
2022/08/04 13:59:25;;;;;;;4.77;3.63;;;;;;;;;;5091947;28;20256;-74
2022/08/04 14:01:57;;;;;;;5.83;3.90;;;;;;;;;;5091412;28;20186;-75
2022/08/04 14:04:26;;;;;;;5.57;3.97;;;;;;;;;;5073903;28;20274;-75
2022/08/04 14:07:12;;;;;;;4.30;3.90;;;;;;;;;;5059168;28;20260;-75
2022/08/04 14:09:46;;;;;;;4.40;4.00;;;;;;;;;;5058921;28;20216;-75
2022/08/04 14:12:29;;;;;;;5.43;3.53;;;;;;;;;;5091271;28;20326;-75
2022/08/04 14:15:31;;;;;;;3.97;3.60;;;;;;;;;;5090537;28;20193;-75
2022/08/04 14:18:16;;;;;;;5.63;3.70;;;;;;;;;;5071918;28;20217;-75
2022/08/04 14:21:02;;;;;;;5.67;3.80;;;;;;;;;;5091073;28;20185;-75
2022/08/04 14:23:36;;;;;;;4.93;3.87;;;;;;;;;;5073488;28;20181;-75
2022/08/04 14:26:17;;;;;;;6.87;4.13;;;;;;;;;;5072956;28;20288;-75
2022/08/04 14:28:44;;;;;;;5.10;3.90;;;;;;;;;;5073206;28;20291;-75
2022/08/04 14:31:31;;;;;;;4.37;3.97;;;;;;;;;;5059493;28;20549;-75
2022/08/04 14:33:59;;;;;;;6.93;4.20;;;;;;;;;;5090452;28;20185;-76
2022/08/04 14:36:43;;;;;;;5.00;3.57;;;;;;;;;;5091081;28;20276;-75
2022/08/04 14:39:40;;;;;;;4.23;3.50;;;;;;;;;;5076267;28;20590;-75
2022/08/04 14:42:43;;;;;;;7.43;4.13;;;;;;;;;;5076072;28;20189;-75
2022/08/04 14:45:31;;;;;;;6.10;3.90;;;;;;;;;;5090693;28;20186;-75
2022/08/04 14:47:58;;;;;;;6.10;3.70;;;;;;;;;;5090534;28;20781;-75
2022/08/04 14:50:43;;;;;;;5.53;3.37;;;;;;;;;;5075385;28;20261;-75
2022/08/04 14:53:14;;;;;;;4.57;3.63;;;;;;;;;;5072982;28;20178;-75
2022/08/04 14:55:46;;;;;;;5.17;3.50;;;;;;;;;;5090571;28;20192;-75
2022/08/04 14:58:20;;;;;;;4.30;3.67;;;;;;;;;;5090656;28;20198;-75
2022/08/04 15:01:03;;;;;;;4.40;3.80;;;;;;;;;;5074938;28;20185;-75
2022/08/04 15:03:41;;;;;;;4.40;3.80;;;;;;;;;;5073632;28;20185;-75
2022/08/04 15:06:25;;;;;;;5.50;3.93;;;;;;;;;;5074027;28;20279;-75
2022/08/04 15:08:52;;;;;;;5.23;4.30;;;;;;;;;;5072671;28;20208;-75
2022/08/04 15:11:20;;;;;;;6.60;4.23;;;;;;;;;;5090540;28;20182;-75
2022/08/04 15:13:50;;;;;;;3.90;3.60;;;;;;;;;;5073093;28;20228;-74
2022/08/04 15:16:17;;;;;;;6.90;3.93;;;;;;;;;;5090495;28;20231;-74
2022/08/04 15:18:44;;;;;;;5.37;4.10;;;;;;;;;;5072224;28;20223;-76
2022/08/04 15:21:15;;;;;;;4.10;3.80;;;;;;;;;;5073100;28;20583;-75
2022/08/04 15:23:42;;;;;;;5.10;3.70;;;;;;;;;;5090284;28;20196;-75
2022/08/04 15:26:12;;;;;;;6.03;3.93;;;;;;;;;;5080134;28;20201;-75
2022/08/04 15:28:40;;;;;;;6.40;3.87;;;;;;;;;;5035645;28;20228;-75
2022/08/04 15:31:07;;;;;;;8.83;3.60;;;;;;;;;;5055763;28;20717;-75